Time;durP1;ratioP1;P1;durP2;ratioP2;P2;SDS_P1;SDS_P2;PMS_P1;PMS_P2;Temp;Humidity;BMP_temperature;BMP_pressure;BME280_temperature;BME280_humidity;BME280_pressure;Samples;Min_cycle;Max_cycle;Signal;HPM_P1;HPM_P2
2022/07/24 00:02:20;;;;;;;32.00;4.20;;;;;;;26.21;56.06;99839.97;7317316;19;130626;-36
2022/07/24 00:04:46;;;;;;;34.00;4.50;;;;;;;26.20;55.30;99837.47;7316847;19;129207;-35
2022/07/24 00:07:11;;;;;;;31.73;4.30;;;;;;;26.23;55.69;99842.44;7314722;19;129209;-38
2022/07/24 00:09:37;;;;;;;31.33;5.00;;;;;;;26.20;55.11;99838.31;7315182;19;128939;-42
2022/07/24 00:12:02;;;;;;;25.67;4.40;;;;;;;26.21;55.19;99839.97;7316188;19;129383;-38
2022/07/24 00:14:28;;;;;;;32.97;4.60;;;;;;;26.21;55.21;99844.41;7314019;19;129147;-39
2022/07/24 00:16:53;;;;;;;33.20;5.00;;;;;;;26.19;55.51;99839.31;7314780;19;128953;-34
2022/07/24 00:19:19;;;;;;;53.50;6.13;;;;;;;26.19;54.65;99834.03;7315044;19;128770;-33
2022/07/24 00:21:44;;;;;;;29.77;4.73;;;;;;;26.19;54.74;99841.94;7315957;19;129802;-42
2022/07/24 00:24:10;;;;;;;34.93;4.97;;;;;;;26.20;55.80;99842.75;7315262;19;129690;-34
2022/07/24 00:26:35;;;;;;;34.33;5.00;;;;;;;26.20;55.03;99853.28;7315218;19;129096;-38
2022/07/24 00:29:01;;;;;;;19.70;3.97;;;;;;;26.20;55.28;99848.84;7316085;19;128789;-38
2022/07/24 00:31:26;;;;;;;50.10;6.07;;;;;;;26.20;55.73;99845.38;7315656;19;131427;-37
2022/07/24 00:33:51;;;;;;;52.83;6.27;;;;;;;26.19;55.21;99841.13;7313588;19;130100;-32
2022/07/24 00:36:17;;;;;;;20.13;3.90;;;;;;;26.14;54.95;99836.34;7314774;19;129327;-39
2022/07/24 00:38:42;;;;;;;41.57;5.40;;;;;;;26.17;55.55;99843.91;7315040;19;129192;-33
2022/07/24 00:41:08;;;;;;;36.57;4.93;;;;;;;26.18;54.91;99850.81;7314696;19;129940;-38
2022/07/24 00:43:34;;;;;;;33.73;4.60;;;;;;;26.18;55.19;99850.81;7316151;19;129370;-38
2022/07/24 00:46:00;;;;;;;15.27;3.27;;;;;;;26.19;54.95;99856.94;7314056;19;129100;-36
2022/07/24 00:48:25;;;;;;;39.90;4.97;;;;;;;26.12;55.13;99845.38;7314606;19;129378;-37
2022/07/24 00:50:51;;;;;;;33.40;5.00;;;;;;;26.18;54.42;99850.03;7315594;19;129415;-35
2022/07/24 00:53:17;;;;;;;28.50;4.07;;;;;;;26.10;54.55;99845.56;7313020;19;129415;-37
2022/07/24 00:55:43;;;;;;;35.35;4.90;;;;;;;26.09;55.04;99846.56;7315951;19;129252;-34
2022/07/24 00:58:09;;;;;;;53.63;6.50;;;;;;;26.19;56.29;99860.41;7311845;19;129013;-39
2022/07/24 01:00:34;;;;;;;31.03;4.37;;;;;;;26.16;55.08;99858.09;7312051;19;129186;-36
2022/07/24 01:03:00;;;;;;;34.73;4.87;;;;;;;26.20;55.25;99864.66;7313082;19;129904;-36
2022/07/24 01:05:25;;;;;;;32.10;4.73;;;;;;;26.19;54.65;99856.94;7314624;19;129374;-42
2022/07/24 01:07:51;;;;;;;20.77;4.17;;;;;;;26.18;54.69;99861.38;7312451;19;128939;-36
2022/07/24 01:10:17;;;;;;;43.00;5.60;;;;;;;26.16;54.89;99871.28;7314553;19;129142;-35
2022/07/24 01:12:42;;;;;;;23.97;3.77;;;;;;;26.16;55.59;99866.00;7315015;19;129064;-38
2022/07/24 01:15:10;;;;;;;52.13;5.63;;;;;;;26.17;55.67;99869.44;7314180;19;129151;-41
2022/07/24 01:17:38;;;;;;;21.38;4.18;;;;;;;26.15;55.81;99861.69;7312294;19;129188;-34
2022/07/24 01:20:05;;;;;;;39.78;5.03;;;;;;;26.14;55.00;99865.34;7314622;19;130274;-37
2022/07/24 01:22:31;;;;;;;32.42;4.25;;;;;;;26.15;54.27;99871.41;7314193;19;129215;-41
2022/07/24 01:24:56;;;;;;;31.77;4.83;;;;;;;26.16;55.09;99867.81;7313645;19;129411;-42
2022/07/24 01:27:23;;;;;;;40.27;5.27;;;;;;;26.16;55.69;99873.06;7312211;19;129736;-35
2022/07/24 01:29:48;;;;;;;;;;;;;;;26.23;58.14;99874.09;7314119;19;129302;-35
2022/07/24 01:32:14;;;;;;;36.00;4.57;;;;;;;26.17;55.42;99875.53;7312840;19;131425;-34
2022/07/24 01:34:40;;;;;;;26.70;4.10;;;;;;;26.13;54.53;99863.66;7311369;19;128980;-33
2022/07/24 01:37:06;;;;;;;26.17;3.83;;;;;;;26.03;55.05;99855.09;7311070;19;129056;-36
2022/07/24 01:39:32;;;;;;;38.03;5.03;;;;;;;26.12;54.54;99871.75;7311886;19;132517;-34
2022/07/24 01:41:57;;;;;;;27.30;4.20;;;;;;;26.10;55.07;99864.00;7314488;19;130244;-37
2022/07/24 01:44:22;;;;;;;40.00;5.03;;;;;;;26.11;54.46;99876.22;7312300;19;128953;-42
2022/07/24 01:46:48;;;;;;;15.97;3.50;;;;;;;26.13;54.24;99882.13;7311978;19;129016;-36
2022/07/24 01:49:13;;;;;;;37.60;4.83;;;;;;;26.12;54.38;99885.75;7313355;19;129518;-36
2022/07/24 01:51:39;;;;;;;30.23;4.43;;;;;;;26.13;55.48;99884.75;7313687;19;130605;-40
2022/07/24 01:54:04;;;;;;;49.60;5.43;;;;;;;26.14;55.34;99882.94;7311936;19;128921;-38
2022/07/24 01:56:31;;;;;;;28.17;3.87;;;;;;;26.12;54.93;99877.00;7311712;19;129191;-39
2022/07/24 01:58:57;;;;;;;;;;;;;;;26.19;57.39;99888.56;7313352;19;129214;-39
2022/07/24 02:01:22;;;;;;;31.17;4.32;;;;;;;26.15;55.45;99888.06;7313006;19;130357;-36
2022/07/24 02:03:48;;;;;;;25.17;3.47;;;;;;;26.12;54.80;99893.66;7313598;19;128855;-39
2022/07/24 02:06:14;;;;;;;28.27;4.10;;;;;;;26.08;54.60;99881.78;7311728;19;129027;-44
2022/07/24 02:08:40;;;;;;;;;;;;;;;26.11;57.89;99892.03;7313251;19;129420;-37
2022/07/24 02:11:06;;;;;;;20.10;3.40;;;;;;;26.15;54.81;99895.97;7312080;19;128836;-44
2022/07/24 02:13:31;;;;;;;13.33;3.07;;;;;;;26.04;54.32;99884.91;7312170;19;129201;-36
2022/07/24 02:15:56;;;;;;;42.27;5.07;;;;;;;26.13;54.79;99895.28;7312824;19;129225;-38
2022/07/24 02:18:22;;;;;;;23.30;3.47;;;;;;;26.05;54.49;99881.31;7311760;19;129088;-36
2022/07/24 02:20:47;;;;;;;36.83;4.53;;;;;;;26.10;54.78;99890.34;7313358;19;129704;-32
2022/07/24 02:23:17;;;;;;;34.17;4.60;;;;;;;26.12;55.04;99898.94;7310103;19;129151;-35
2022/07/24 02:25:44;;;;;;;14.43;2.90;;;;;;;26.13;55.00;99889.22;7313091;19;128958;-40
2022/07/24 02:28:09;;;;;;;53.67;5.78;;;;;;;26.12;54.78;99892.81;7309329;19;129817;-35
2022/07/24 02:30:35;;;;;;;25.27;3.77;;;;;;;26.11;55.75;99897.28;7311518;19;129168;-38
2022/07/24 02:33:00;;;;;;;37.30;4.30;;;;;;;26.04;54.25;99885.75;7312215;19;129339;-38
2022/07/24 02:35:25;;;;;;;90.67;8.47;;;;;;;26.12;55.51;99912.09;7309878;19;130111;-34
2022/07/24 02:37:51;;;;;;;33.50;4.37;;;;;;;26.13;54.52;99908.47;7310208;19;129051;-36
2022/07/24 02:40:16;;;;;;;39.67;4.73;;;;;;;26.14;54.33;99912.78;7312166;19;129321;-40
2022/07/24 02:42:42;;;;;;;98.47;9.00;;;;;;;26.08;55.14;99913.41;7311048;19;130039;-35
2022/07/24 02:45:08;;;;;;;32.27;4.10;;;;;;;26.12;55.04;99911.28;7312355;19;130637;-41
2022/07/24 02:47:34;;;;;;;42.25;4.90;;;;;;;26.11;54.71;99913.09;7310327;19;129452;-35
2022/07/24 02:49:59;;;;;;;22.25;3.30;;;;;;;26.13;54.26;99915.56;7311840;19;130430;-37
2022/07/24 02:52:25;;;;;;;27.30;3.87;;;;;;;26.12;54.58;99913.91;7311624;19;129092;-39
2022/07/24 02:54:50;;;;;;;27.27;3.63;;;;;;;26.13;55.73;99915.56;7307799;19;129313;-36
2022/07/24 02:57:15;;;;;;;35.83;4.27;;;;;;;26.12;55.23;99914.75;7310470;19;130430;-33
2022/07/24 02:59:41;;;;;;;28.50;3.90;;;;;;;26.12;55.13;99909.47;7311501;19;130265;-37
2022/07/24 03:02:06;;;;;;;29.37;3.77;;;;;;;26.11;54.54;99915.72;7312554;19;129233;-38
2022/07/24 03:04:32;;;;;;;42.90;4.90;;;;;;;26.10;54.78;99919.34;7311520;19;129785;-38
2022/07/24 03:06:57;;;;;;;38.83;4.63;;;;;;;26.13;54.17;99907.66;7309569;19;131365;-39
2022/07/24 03:09:23;;;;;;;38.90;4.40;;;;;;;26.12;54.92;99914.75;7310124;19;129427;-36
2022/07/24 03:11:48;;;;;;;30.83;3.93;;;;;;;26.12;54.73;99919.19;7311647;19;128938;-36
2022/07/24 03:14:13;;;;;;;24.57;3.53;;;;;;;26.11;54.04;99918.38;7309204;19;128713;-35
2022/07/24 03:16:39;;;;;;;36.23;4.73;;;;;;;26.00;54.49;99900.19;7310358;19;129306;-31
2022/07/24 03:19:04;;;;;;;40.03;4.67;;;;;;;26.12;54.59;99919.19;7310162;19;129776;-36
2022/07/24 03:21:29;;;;;;;37.27;4.77;;;;;;;26.03;55.54;99905.16;7310005;19;129638;-36
2022/07/24 03:23:55;;;;;;;38.20;4.80;;;;;;;26.11;53.94;99922.81;7313624;19;128936;-38
2022/07/24 03:26:20;;;;;;;24.23;3.50;;;;;;;26.13;55.77;99916.38;7317782;19;129158;-38
2022/07/24 03:28:46;;;;;;;30.17;4.00;;;;;;;26.11;53.99;99918.38;7316599;19;129134;-43
2022/07/24 03:31:12;;;;;;;27.53;3.50;;;;;;;26.11;55.42;99923.66;7318127;19;129585;-42
2022/07/24 03:33:37;;;;;;;18.67;3.17;;;;;;;26.10;54.72;99921.97;7316978;19;128882;-37
2022/07/24 03:36:03;;;;;;;48.40;5.23;;;;;;;26.09;54.48;99920.34;7316282;19;129534;-36
2022/07/24 03:38:28;;;;;;;30.40;4.03;;;;;;;26.10;54.22;99916.69;7315674;19;129506;-38
2022/07/24 03:40:54;;;;;;;37.67;4.10;;;;;;;26.10;55.04;99921.97;7316792;19;129184;-37
2022/07/24 03:43:19;;;;;;;19.90;3.33;;;;;;;26.10;54.91;99921.97;7317016;19;128836;-36
2022/07/24 03:45:45;;;;;;;28.20;4.03;;;;;;;26.09;55.44;99922.97;7316348;19;129415;-34
2022/07/24 03:48:10;;;;;;;60.70;6.23;;;;;;;26.05;54.55;99905.81;7311270;19;131168;-41
2022/07/24 03:50:35;;;;;;;28.93;4.10;;;;;;;26.11;55.10;99914.91;7315957;19;129239;-36
2022/07/24 03:53:01;;;;;;;40.90;4.60;;;;;;;26.12;54.26;99919.19;7314661;19;128868;-42
2022/07/24 03:55:27;;;;;;;29.93;3.90;;;;;;;26.07;54.94;99921.47;7316424;19;129586;-38
2022/07/24 03:57:52;;;;;;;34.87;3.73;;;;;;;26.10;54.61;99924.59;7314579;19;129384;-39
2022/07/24 04:00:18;;;;;;;34.67;4.10;;;;;;;26.09;54.90;99925.59;7316942;19;128936;-37
2022/07/24 04:02:43;;;;;;;36.73;4.30;;;;;;;26.10;54.93;99921.97;7316289;19;128914;-35
2022/07/24 04:05:09;;;;;;;44.47;4.97;;;;;;;26.04;54.94;99912.09;7315707;19;129394;-41
2022/07/24 04:07:36;;;;;;;31.90;4.15;;;;;;;26.10;55.30;99921.97;7313626;19;131492;-39
2022/07/24 04:10:03;;;;;;;28.17;3.50;;;;;;;26.09;55.15;99928.25;7316538;19;128887;-36
2022/07/24 04:12:28;;;;;;;;;;;;;;;26.15;57.47;99924.94;7315990;19;129144;-36
2022/07/24 04:14:53;;;;;;;32.63;4.17;;;;;;;26.12;55.24;99930.56;7314047;19;129271;-37
2022/07/24 04:17:19;;;;;;;51.53;5.67;;;;;;;26.11;55.51;99928.09;7312607;19;129404;-34
2022/07/24 04:19:44;;;;;;;35.40;4.43;;;;;;;26.09;54.91;99936.16;7315288;19;129184;-41
2022/07/24 04:22:09;;;;;;;23.67;3.63;;;;;;;26.08;54.56;99923.13;7315218;19;129327;-40
2022/07/24 04:24:35;;;;;;;40.53;4.53;;;;;;;26.03;55.27;99918.31;7315751;19;131580;-39
2022/07/24 04:27:00;;;;;;;39.00;4.50;;;;;;;26.11;54.28;99934.19;7314588;19;129810;-37
2022/07/24 04:29:26;;;;;;;29.10;4.03;;;;;;;26.10;55.75;99927.25;7313075;19;129055;-40
2022/07/24 04:31:51;;;;;;;35.00;4.30;;;;;;;26.09;55.24;99925.59;7315940;19;129007;-35
2022/07/24 04:34:16;;;;;;;36.13;4.23;;;;;;;26.10;54.64;99926.44;7312434;19;130041;-40
2022/07/24 04:36:42;;;;;;;18.30;3.43;;;;;;;26.10;55.63;99924.59;7313950;19;130358;-38
2022/07/24 04:39:07;;;;;;;26.43;3.63;;;;;;;26.09;55.18;99933.50;7315400;19;129006;-35
2022/07/24 04:41:32;;;;;;;29.60;4.30;;;;;;;26.09;55.60;99930.88;7314822;19;128937;-38
2022/07/24 04:43:58;;;;;;;21.73;3.40;;;;;;;26.08;54.72;99934.47;7314934;19;129489;-40
2022/07/24 04:46:23;;;;;;;29.93;3.90;;;;;;;26.02;54.67;99921.13;7314289;19;129693;-38
2022/07/24 04:48:48;;;;;;;44.30;4.90;;;;;;;26.08;54.52;99929.22;7313770;19;129279;-41
2022/07/24 04:51:14;;;;;;;26.30;4.47;;;;;;;26.10;54.35;99937.78;7315511;19;128984;-41
2022/07/24 04:53:39;;;;;;;36.80;4.83;;;;;;;26.07;55.10;99924.94;7313558;19;129548;-37
2022/07/24 04:56:05;;;;;;;31.53;4.27;;;;;;;26.09;55.35;99936.16;7314511;19;129335;-34
2022/07/24 04:58:30;;;;;;;37.10;4.93;;;;;;;26.08;54.95;99934.47;7313792;19;129122;-39
2022/07/24 05:00:56;;;;;;;27.43;3.87;;;;;;;26.10;54.89;99936.97;7314921;19;128852;-34
2022/07/24 05:03:21;;;;;;;33.70;4.33;;;;;;;26.09;54.65;99936.16;7314685;19;129315;-42
2022/07/24 05:05:47;;;;;;;24.67;3.60;;;;;;;26.08;54.21;99929.22;7313761;19;129941;-35
2022/07/24 05:08:12;;;;;;;49.63;5.87;;;;;;;26.08;55.23;99934.47;7313814;19;129018;-33
2022/07/24 05:10:38;;;;;;;41.20;5.03;;;;;;;26.02;54.98;99918.47;7314172;19;128847;-34
2022/07/24 05:13:03;;;;;;;34.97;4.67;;;;;;;26.09;53.96;99932.69;7314199;19;129984;-37
2022/07/24 05:15:28;;;;;;;28.43;4.30;;;;;;;26.09;55.29;99936.16;7311963;19;129328;-41
2022/07/24 05:17:54;;;;;;;24.93;4.20;;;;;;;26.08;54.72;99945.03;7310699;19;128982;-44
2022/07/24 05:20:19;;;;;;;31.73;4.63;;;;;;;26.10;54.69;99943.06;7313288;19;129137;-36
2022/07/24 05:22:45;;;;;;;47.13;5.57;;;;;;;26.09;54.41;99940.59;7313724;19;128992;-39
2022/07/24 05:25:10;;;;;;;16.53;3.63;;;;;;;26.05;54.78;99934.00;7313975;19;129156;-33
2022/07/24 05:27:36;;;;;;;37.97;4.70;;;;;;;26.08;54.98;99938.94;7311805;19;129560;-34
2022/07/24 05:30:03;;;;;;;32.60;4.70;;;;;;;26.05;54.80;99934.00;7313085;19;129143;-38
2022/07/24 05:32:28;;;;;;;30.45;4.65;;;;;;;26.07;54.66;99932.84;7313791;19;130568;-35
2022/07/24 05:34:54;;;;;;;42.77;5.63;;;;;;;26.01;54.47;99922.94;7310043;19;129150;-35
2022/07/24 05:37:19;;;;;;;26.83;4.10;;;;;;;26.08;54.29;99934.47;7311594;19;129060;-38
2022/07/24 05:39:44;;;;;;;37.93;4.87;;;;;;;26.07;54.75;99927.56;7311970;19;129929;-33
2022/07/24 05:42:10;;;;;;;28.03;4.57;;;;;;;26.08;55.26;99923.94;7312719;19;129238;-38
2022/07/24 05:44:36;;;;;;;109.67;10.37;;;;;;;26.07;54.85;99932.84;7311540;19;129638;-35
2022/07/24 05:47:01;;;;;;;41.83;5.72;;;;;;;26.11;54.63;99934.19;7308916;19;129797;-36
2022/07/24 05:49:28;;;;;;;34.83;4.57;;;;;;;26.07;55.10;99924.94;7311558;19;129020;-36
2022/07/24 05:51:53;;;;;;;54.40;6.43;;;;;;;26.10;54.90;99929.06;7311241;19;130883;-35
2022/07/24 05:54:18;;;;;;;31.43;4.40;;;;;;;26.09;55.22;99924.78;7310944;19;129834;-37
2022/07/24 05:56:44;;;;;;;31.80;4.97;;;;;;;26.08;55.12;99926.56;7311298;19;128979;-43
2022/07/24 05:59:09;;;;;;;30.33;4.70;;;;;;;26.09;54.88;99935.31;7310429;19;129227;-36
2022/07/24 06:01:35;;;;;;;28.77;4.33;;;;;;;26.10;54.60;99936.97;7312885;19;129621;-35
2022/07/24 06:04:00;;;;;;;33.23;4.73;;;;;;;26.02;54.51;99923.75;7311337;19;129111;-40
2022/07/24 06:06:26;;;;;;;27.00;3.97;;;;;;;26.09;54.19;99930.88;7311749;19;130219;-33
2022/07/24 06:08:51;;;;;;;36.37;4.90;;;;;;;26.09;55.30;99937.94;7311181;19;129768;-35
2022/07/24 06:11:17;;;;;;;21.33;4.00;;;;;;;26.07;54.75;99932.84;7311275;19;130106;-39
2022/07/24 06:13:43;;;;;;;53.20;5.60;;;;;;;26.11;54.86;99934.19;7312259;19;130389;-39
2022/07/24 06:16:08;;;;;;;40.83;4.93;;;;;;;26.10;55.02;99932.50;7312256;19;129270;-36
2022/07/24 06:18:34;;;;;;;47.43;5.53;;;;;;;26.08;54.63;99929.22;7312030;19;128823;-39
2022/07/24 06:20:59;;;;;;;32.80;4.67;;;;;;;26.09;55.51;99932.69;7312191;19;130863;-39
2022/07/24 06:23:24;;;;;;;30.73;4.77;;;;;;;26.07;54.85;99938.13;7312941;19;129050;-33
2022/07/24 06:25:50;;;;;;;32.03;4.40;;;;;;;26.10;55.28;99935.16;7311692;19;129147;-37
2022/07/24 06:28:15;;;;;;;52.73;6.13;;;;;;;26.10;54.96;99932.50;7311220;19;129259;-36
2022/07/24 06:30:40;;;;;;;37.93;4.97;;;;;;;26.10;54.49;99932.50;7312945;19;129086;-33
2022/07/24 06:33:06;;;;;;;41.27;5.30;;;;;;;26.09;55.34;99930.88;7311971;19;129005;-34
2022/07/24 06:35:32;;;;;;;22.90;4.20;;;;;;;26.08;54.52;99929.22;7310064;19;130050;-39
2022/07/24 06:37:58;;;;;;;34.28;4.75;;;;;;;26.08;54.84;99931.84;7309375;19;129173;-36
2022/07/24 06:40:23;;;;;;;35.27;4.53;;;;;;;26.08;54.75;99937.13;7311055;19;129781;-43
2022/07/24 06:42:49;;;;;;;29.17;4.20;;;;;;;26.08;54.09;99942.38;7312647;19;130409;-35
2022/07/24 06:45:15;;;;;;;32.63;4.70;;;;;;;26.07;54.69;99938.13;7312093;19;129871;-33
2022/07/24 06:47:41;;;;;;;32.13;4.50;;;;;;;26.09;54.67;99936.16;7308949;19;131010;-36
2022/07/24 06:50:07;;;;;;;30.43;4.23;;;;;;;26.08;54.99;99934.47;7311710;19;129810;-34
2022/07/24 06:52:32;;;;;;;13.35;3.20;;;;;;;26.08;54.59;99937.13;7311182;19;131834;-42
2022/07/24 06:54:58;;;;;;;37.33;4.93;;;;;;;26.02;54.53;99923.75;7309374;19;129191;-37
2022/07/24 06:57:25;;;;;;;32.93;4.40;;;;;;;26.08;55.13;99941.59;7310262;19;128882;-36
2022/07/24 06:59:52;;;;;;;42.47;5.00;;;;;;;26.08;54.57;99937.13;7316463;19;130049;-36
2022/07/24 07:02:18;;;;;;;36.33;4.78;;;;;;;26.07;54.37;99934.66;7317428;19;130781;-37
2022/07/24 07:04:43;;;;;;;33.97;4.43;;;;;;;26.01;55.53;99933.50;7317633;19;129454;-34
2022/07/24 07:07:08;;;;;;;42.07;4.97;;;;;;;26.11;55.10;99933.34;7315920;19;129884;-37
2022/07/24 07:09:35;;;;;;;50.77;5.37;;;;;;;26.01;54.64;99920.31;7317290;19;129778;-37
2022/07/24 07:12:01;;;;;;;;;;;;;;;26.14;57.29;99935.66;7317859;19;131172;-35
2022/07/24 07:14:26;;;;;;;37.20;4.75;;;;;;;26.08;54.58;99939.75;7315217;19;130524;-41
2022/07/24 07:16:51;;;;;;;38.73;5.03;;;;;;;26.07;54.88;99932.84;7315747;19;129135;-36
2022/07/24 07:19:17;;;;;;;35.20;4.40;;;;;;;26.07;54.91;99932.84;7315486;19;129473;-36
2022/07/24 07:21:42;;;;;;;43.77;4.80;;;;;;;26.01;54.20;99922.94;7316803;19;129255;-38
2022/07/24 07:24:07;;;;;;;26.00;3.57;;;;;;;26.08;54.87;99929.22;7317790;19;128963;-42
2022/07/24 07:26:33;;;;;;;24.43;3.50;;;;;;;26.00;55.03;99918.63;7315215;19;129291;-37
2022/07/24 07:28:58;;;;;;;36.23;4.10;;;;;;;26.05;54.16;99929.53;7315436;19;129231;-37
2022/07/24 07:31:26;;;;;;;49.47;5.27;;;;;;;26.07;54.43;99932.84;7316260;19;129836;-35
2022/07/24 07:33:52;;;;;;;36.78;4.15;;;;;;;26.05;54.05;99934.81;7316798;19;130779;-37
2022/07/24 07:36:18;;;;;;;36.22;4.45;;;;;;;26.06;54.31;99928.56;7316541;19;129353;-41
2022/07/24 07:38:43;;;;;;;31.90;3.83;;;;;;;26.08;54.49;99933.69;7316027;19;130439;-40
2022/07/24 07:41:08;;;;;;;24.30;3.30;;;;;;;26.09;53.95;99930.03;7317542;19;130440;-34
2022/07/24 07:43:34;;;;;;;49.47;4.87;;;;;;;26.08;53.99;99925.78;7317213;19;129426;-34
2022/07/24 07:45:59;;;;;;;43.97;4.80;;;;;;;26.01;54.70;99922.94;7316542;19;129321;-37
2022/07/24 07:48:25;;;;;;;45.37;4.93;;;;;;;26.06;54.50;99925.94;7316051;19;128981;-36
2022/07/24 07:50:50;;;;;;;31.93;3.53;;;;;;;26.01;55.34;99925.59;7316246;19;129609;-36
2022/07/24 07:53:16;;;;;;;29.27;3.80;;;;;;;26.07;54.86;99932.84;7316626;19;129093;-36
2022/07/24 07:55:42;;;;;;;38.67;4.50;;;;;;;25.98;54.76;99912.69;7313979;19;129603;-34
2022/07/24 07:58:08;;;;;;;;;;;;;;;26.11;57.59;99934.19;7313979;19;130521;-38
2022/07/24 08:00:33;;;;;;;42.00;4.80;;;;;;;26.06;54.47;99933.84;7315414;19;130716;-40
2022/07/24 08:02:59;;;;;;;42.47;4.63;;;;;;;26.07;54.33;99932.84;7315779;19;129230;-36
2022/07/24 08:05:24;;;;;;;29.00;3.70;;;;;;;26.06;54.71;99938.28;7316451;19;129802;-37
2022/07/24 08:07:50;;;;;;;45.60;4.67;;;;;;;26.07;54.37;99938.13;7312967;19;129668;-40
2022/07/24 08:10:15;;;;;;;19.33;3.10;;;;;;;26.04;54.29;99933.16;7313759;19;129982;-35
2022/07/24 08:12:41;;;;;;;30.93;3.50;;;;;;;26.06;55.08;99930.38;7315722;19;129057;-42
2022/07/24 08:15:06;;;;;;;38.33;4.37;;;;;;;26.06;54.45;99933.84;7312624;19;129033;-41
2022/07/24 08:17:32;;;;;;;16.97;2.73;;;;;;;26.06;54.52;99931.19;7314097;19;130510;-41
2022/07/24 08:19:58;;;;;;;36.70;4.27;;;;;;;26.06;54.98;99933.84;7315415;19;131603;-35
2022/07/24 08:22:23;;;;;;;36.80;4.00;;;;;;;26.07;55.17;99932.00;7315840;19;130377;-35
2022/07/24 08:24:48;;;;;;;33.23;3.73;;;;;;;26.05;54.52;99929.53;7315398;19;130247;-38
2022/07/24 08:27:14;;;;;;;37.57;4.33;;;;;;;26.06;54.69;99928.56;7313722;19;130519;-37
2022/07/24 08:29:39;;;;;;;34.93;3.97;;;;;;;26.06;53.88;99933.84;7314797;19;130308;-37
2022/07/24 08:32:05;;;;;;;24.77;3.03;;;;;;;26.07;54.86;99932.84;7315941;19;129183;-41
2022/07/24 08:34:30;;;;;;;28.23;3.73;;;;;;;26.06;54.55;99920.66;7313927;19;129273;-38
2022/07/24 08:36:55;;;;;;;27.80;3.27;;;;;;;26.05;54.37;99924.25;7314503;19;131070;-39
2022/07/24 08:39:21;;;;;;;31.30;3.53;;;;;;;26.04;53.41;99914.72;7313450;19;129488;-38
2022/07/24 08:41:46;;;;;;;27.20;3.40;;;;;;;26.04;53.28;99916.53;7315027;19;129077;-36
2022/07/24 08:44:12;;;;;;;22.17;2.93;;;;;;;26.02;54.42;99921.97;7315054;19;130061;-37
2022/07/24 08:46:39;;;;;;;60.43;6.00;;;;;;;26.03;53.59;99918.31;7312228;19;130475;-41
2022/07/24 08:49:11;;;;;;;35.50;3.67;;;;;;;26.00;56.23;99910.72;7314094;19;129284;-40
2022/07/24 08:51:39;;;;;;;22.55;2.95;;;;;;;26.03;54.57;99915.69;7314804;19;129463;-39
2022/07/24 08:54:05;;;;;;;34.03;3.70;;;;;;;26.03;53.97;99905.16;7314309;19;129094;-36
2022/07/24 08:56:33;;;;;;;11.90;2.17;;;;;;;26.04;53.66;99913.88;7313095;19;129820;-43
2022/07/24 08:58:59;;;;;;;44.08;4.65;;;;;;;26.04;53.69;99909.44;7312360;19;130959;-34
2022/07/24 09:01:24;;;;;;;16.30;2.27;;;;;;;26.01;53.78;99896.59;7314369;19;129443;-36
2022/07/24 09:03:50;;;;;;;36.23;4.00;;;;;;;26.05;53.74;99902.38;7312874;19;128877;-42
2022/07/24 09:06:15;;;;;;;31.90;3.43;;;;;;;26.04;53.94;99898.91;7313205;19;129634;-35
2022/07/24 09:08:43;;;;;;;26.50;3.00;;;;;;;26.04;54.31;99896.28;7312790;19;131040;-35
2022/07/24 09:11:09;;;;;;;41.67;4.43;;;;;;;26.05;54.59;99897.91;7313939;19;128937;-37
2022/07/24 09:16:25;;;;;;;27.27;3.22;;;;;;;25.96;53.81;99888.31;7312929;19;129527;-36
2022/07/24 09:19:07;;;;;;;34.05;3.55;;;;;;;25.95;56.59;99878.75;7314560;19;130837;-33
2022/07/24 09:21:35;;;;;;;34.78;3.40;;;;;;;26.04;54.33;99906.81;7311306;19;130860;-37
2022/07/24 09:24:10;;;;;;;43.38;4.25;;;;;;;26.04;53.66;99901.53;7313784;19;129069;-39
2022/07/24 09:26:55;;;;;;;18.40;2.50;;;;;;;26.05;56.50;99908.44;7312659;19;129076;-33
2022/07/24 09:29:22;;;;;;;36.80;3.67;;;;;;;26.05;53.79;99890.00;7312036;19;129310;-43
2022/07/24 09:31:55;;;;;;;33.08;3.42;;;;;;;26.03;55.48;99884.06;7313386;19;129028;-38
2022/07/24 09:34:22;;;;;;;47.05;4.60;;;;;;;26.04;54.46;99885.75;7311361;19;130539;-40
2022/07/24 09:37:04;;;;;;;30.83;2.97;;;;;;;26.04;56.69;99888.38;7310794;19;130235;-34
2022/07/24 09:39:32;;;;;;;37.17;3.80;;;;;;;25.97;54.35;99874.16;7312864;19;129728;-33
2022/07/24 09:41:59;;;;;;;27.42;3.28;;;;;;;26.05;54.37;99883.94;7314125;19;130608;-36
2022/07/24 09:44:25;;;;;;;;;;;;;;;26.07;56.36;99885.41;7313346;19;129131;-40
2022/07/24 09:46:58;;;;;;;40.30;4.00;;;;;;;25.99;56.09;99882.72;7311223;19;130906;-35
2022/07/24 09:49:25;;;;;;;30.45;3.55;;;;;;;26.04;54.30;99893.66;7312291;19;129143;-37
2022/07/24 09:52:13;;;;;;;30.92;3.22;;;;;;;26.02;56.06;99882.44;7312497;19;129185;-36
2022/07/24 09:54:49;;;;;;;39.03;3.83;;;;;;;26.02;54.53;99890.34;7311950;19;129937;-36
2022/07/24 09:57:17;;;;;;;29.42;3.28;;;;;;;25.96;53.96;99888.31;7310466;19;131349;-42
2022/07/24 09:59:47;;;;;;;39.00;3.95;;;;;;;26.01;54.95;99883.44;7311773;19;129896;-35
2022/07/24 10:02:18;;;;;;;24.33;2.85;;;;;;;26.02;54.78;99887.69;7312208;19;129414;-41
2022/07/24 10:04:46;;;;;;;34.70;3.47;;;;;;;26.05;54.78;99887.38;7313210;19;129225;-35
2022/07/24 10:07:14;;;;;;;24.63;2.78;;;;;;;25.96;53.45;99882.22;7311638;19;131023;-36
2022/07/24 10:09:45;;;;;;;30.67;3.35;;;;;;;26.00;55.03;99894.09;7311972;19;129681;-39
2022/07/24 10:12:19;;;;;;;35.28;3.42;;;;;;;26.00;55.71;99897.53;7313070;19;129265;-36
2022/07/24 10:14:48;;;;;;;30.42;3.10;;;;;;;26.01;54.14;99893.97;7311285;19;129035;-34
2022/07/24 10:17:14;;;;;;;27.80;2.78;;;;;;;26.02;53.63;99882.44;7310420;19;131329;-33
2022/07/24 10:19:48;;;;;;;41.00;3.65;;;;;;;25.94;55.88;99869.22;7310579;19;129158;-39
2022/07/24 10:22:23;;;;;;;37.17;3.65;;;;;;;26.02;55.36;99882.44;7311386;19;129706;-41
2022/07/24 10:24:55;;;;;;;32.67;3.22;;;;;;;26.01;54.24;99882.56;7311981;19;129292;-39
2022/07/24 10:27:31;;;;;;;34.20;3.53;;;;;;;26.00;53.58;99884.38;7310015;19;130243;-39
2022/07/24 10:30:04;;;;;;;43.10;4.07;;;;;;;25.94;54.87;99871.00;7310794;19;129805;-38
2022/07/24 10:32:31;;;;;;;33.08;3.40;;;;;;;26.02;53.91;99885.06;7309922;19;128965;-31
2022/07/24 10:35:13;;;;;;;39.78;3.83;;;;;;;26.00;55.92;99875.66;7309161;19;128812;-40
2022/07/24 10:37:41;;;;;;;35.58;3.60;;;;;;;25.93;55.09;99867.56;7308453;19;130194;-42
2022/07/24 10:40:33;;;;;;;24.58;2.72;;;;;;;26.01;55.88;99880.78;7310010;19;129326;-40
2022/07/24 10:43:05;;;;;;;37.25;3.67;;;;;;;26.00;55.67;99873.81;7310545;19;131113;-37
2022/07/24 10:45:31;;;;;;;20.67;2.53;;;;;;;26.01;53.37;99875.53;7311089;19;130452;-37
2022/07/24 10:47:56;;;;;;;35.17;3.88;;;;;;;26.02;53.92;99871.06;7309232;19;130133;-37
2022/07/24 10:50:22;;;;;;;23.33;2.70;;;;;;;26.02;53.72;99871.91;7310164;19;129432;-37
2022/07/24 10:52:48;;;;;;;42.50;3.80;;;;;;;26.01;54.00;99870.25;7310659;19;129086;-37
2022/07/24 10:55:29;;;;;;;30.63;3.00;;;;;;;25.96;55.47;99861.97;7309423;19;129158;-33
2022/07/24 10:58:01;;;;;;;35.30;3.45;;;;;;;26.01;54.54;99854.44;7308507;19;130237;-39
2022/07/24 11:00:32;;;;;;;27.65;3.15;;;;;;;26.00;55.15;99862.47;7311389;19;130698;-38
2022/07/24 11:03:04;;;;;;;17.38;2.40;;;;;;;25.90;53.73;99841.53;7309377;19;129176;-36
2022/07/24 11:05:38;;;;;;;14.73;2.28;;;;;;;26.02;55.10;99861.34;7310667;19;131087;-39
2022/07/24 11:08:13;;;;;;;50.83;4.85;;;;;;;25.92;55.37;99839.56;7306547;19;129060;-42
2022/07/24 11:10:52;;;;;;;43.38;3.95;;;;;;;26.01;55.66;99854.44;7310650;19;129507;-35
2022/07/24 11:13:32;;;;;;;25.10;2.75;;;;;;;26.03;56.51;99847.19;7310255;19;129156;-39
2022/07/24 11:16:10;;;;;;;32.50;3.30;;;;;;;26.03;55.85;99851.66;7308815;19;129175;-37
2022/07/24 11:18:36;;;;;;;32.88;3.40;;;;;;;26.03;53.14;99849.81;7307627;19;131868;-38
2022/07/24 11:21:03;;;;;;;23.35;2.72;;;;;;;26.02;53.78;99853.44;7311140;19;130466;-38